Track Чиняков Михаил

Time Latitude Longitude Accuracy (66% radius in meters) Altitude (meters) Speed (km/hour) Bearing (degrees) Battery (%) GPS flag
09:01:55 57.204452 60.120896 0 0 0 0 1 delete
09:01:54 57.204456 60.120897 0 0 0 0 1 delete
09:01:53 57.204461 60.120903 0 0 0 0 1 delete
09:01:52 57.204466 60.120906 0 0 0 0 1 delete
09:01:51 57.204470 60.120910 0 0 0 0 1 delete
09:01:50 57.204475 60.120913 0 0 0 0 1 delete
09:01:49 57.204479 60.120916 0 0 0 0 1 delete
09:01:48 57.204485 60.120917 0 0 0 0 1 delete
09:01:47 57.204492 60.120919 0 0 0 0 1 delete
09:01:46 57.204498 60.120920 0 0 0 0 1 delete
09:01:45 57.204508 60.120923 0 0 0 0 1 delete
09:01:44 57.204521 60.120925 0 0 0 0 1 delete
09:01:43 57.204540 60.120921 0 0 0 0 1 delete
09:01:42 57.204554 60.120914 0 0 0 0 1 delete
09:01:41 57.204565 60.120909 0 0 0 0 1 delete
09:01:40 57.204569 60.120908 0 0 0 0 1 delete
09:01:39 57.204572 60.120908 0 0 0 0 1 delete
09:01:38 57.204571 60.120910 0 0 0 0 1 delete
09:01:37 57.204571 60.120910 0 0 0 0 1 delete
09:01:36 57.204571 60.120911 0 0 0 0 1 delete
09:01:35 57.204572 60.120910 0 0 0 0 1 delete
09:01:34 57.204572 60.120909 0 0 0 0 1 delete
09:01:33 57.204572 60.120907 0 0 0 0 1 delete
09:01:32 57.204570 60.120903 0 0 0 0 1 delete
09:01:31 57.204567 60.120896 0 0 0 0 1 delete
09:01:30 57.204565 60.120885 0 0 0 0 1 delete
09:01:29 57.204565 60.120869 0 0 0 0 1 delete
09:01:28 57.204564 60.120849 0 0 0 0 1 delete
09:01:27 57.204565 60.120824 0 0 0 0 1 delete
09:01:26 57.204562 60.120799 0 0 0 0 1 delete
09:01:25 57.204557 60.120774 0 0 0 0 1 delete
09:01:24 57.204547 60.120752 0 0 0 0 1 delete
09:01:23 57.204537 60.120731 0 0 0 0 1 delete
09:01:22 57.204526 60.120709 0 0 0 0 1 delete
09:01:21 57.204514 60.120686 0 0 0 0 1 delete
09:01:20 57.204501 60.120664 0 0 0 0 1 delete
09:01:19 57.204488 60.120641 0 0 0 0 1 delete
09:01:18 57.204478 60.120621 0 0 0 0 1 delete
09:01:17 57.204468 60.120601 0 0 0 0 1 delete
09:01:16 57.204459 60.120583 0 0 0 0 1 delete
09:01:15 57.204450 60.120566 0 0 0 0 1 delete
09:01:14 57.204442 60.120553 0 0 0 0 1 delete
09:01:13 57.204439 60.120548 0 0 0 0 1 delete
09:01:12 57.204438 60.120548 0 0 0 0 1 delete
09:01:11 57.204439 60.120551 0 0 0 0 1 delete
09:01:10 57.204437 60.120555 0 0 0 0 1 delete
09:01:09 57.204436 60.120558 0 0 0 0 1 delete
09:01:08 57.204435 60.120561 0 0 0 0 1 delete
09:01:07 57.204434 60.120562 0 0 0 0 1 delete
09:01:06 57.204433 60.120563 0 0 0 0 1 delete